EKAH

Aarhus Airport

Airport
ICAO code
EKAH
IATA Code
AAR
Summary
ICAO Region
EUR
ICAO Territory
Location

Tirstrup, Central Jutland Region

Serving
Aarhus
Elevation
82 ft
Coordinates
56° 18' 11" N , 10° 37' 4" E
KCC
Metar
Observation
EKAH 301050Z AUTO 28018KT 9999 BKN019/// 06/03 Q0995
Station
Tirstrup
Date/Time
2023-01-30 11:50:00
Wind direction
280°
Wind speed
18 kts
Lowest cloud amount
broken clouds
Temperature
6°C
Dew point
3°C
Humidity
81%
QNH
995 hPa
Weather condition
n/a

Description

International airport serving Aarhus, Denmark.

Climatology

Temperate Marine climate/Oceanic climate (Köppen climate classification Cfb). Moderately cool summer and comparatively warm winter with a temperature range of only 14°C. Prevailing south-westerly winds from the Atlantic Ocean.

Runways

Designator Length Width Surface Rops
10R/28L 2702 45 PEM Yes/Yes
10L/28R 2777 23 PEM Yes/Yes

Airport map

Aerial View

Airport accidents

SKYbrary Partners:

Safety knowledge contributed by: